VOE1NW LFLL-LEMD
Flight info
| Callsign | VOE1NW |
|---|---|
| Flight time | 1h 27m |
| Altitude | 33000 |
| Route | REPSI DCT LERGA DCT MINSO DCT NARAK DCT AGN DCT MAQAB DCT TIVLI DCT ELSAP DCT ZAR DCT KONKE DCT TERSA |
| Aircraft | A319/M-SDFGIJ1RWY/LB1 |
Departure
| Time | 2026-05-04 15:44 |
|---|---|
| Airport | Lyon Saint-Exupéry Airport (LFLL) |
Arrival
| Time | 2026-05-04 17:11 |
|---|---|
| Airport | Adolfo Suárez Madrid–Barajas Airport (LEMD) |
| Time | Latitude | Longitude | Altitude | Speed | Heading |
|---|---|---|---|---|---|
| 2026-05-04 15:30 | 45.72107 | 5.08180 | 796 ft | 0 kts | 305° |
| 2026-05-04 15:34 | 45.72104 | 5.08186 | 796 ft | 3 kts | 304° |
| 2026-05-04 15:35 | 45.72079 | 5.08253 | 797 ft | 4 kts | 301° |
| 2026-05-04 15:35 | 45.72068 | 5.08272 | 797 ft | 2 kts | 16° |
| 2026-05-04 15:35 | 45.72067 | 5.08271 | 797 ft | 0 kts | 17° |
| 2026-05-04 15:38 | 45.72068 | 5.08272 | 797 ft | 1 kts | 17° |
| 2026-05-04 15:39 | 45.72089 | 5.08281 | 797 ft | 5 kts | 17° |
| 2026-05-04 15:39 | 45.72135 | 5.08303 | 798 ft | 8 kts | 18° |
| 2026-05-04 15:39 | 45.72265 | 5.08379 | 799 ft | 12 kts | 66° |
| 2026-05-04 15:40 | 45.72346 | 5.08414 | 799 ft | 15 kts | 355° |
| 2026-05-04 15:40 | 45.72463 | 5.08399 | 796 ft | 19 kts | 355° |
| 2026-05-04 15:40 | 45.72601 | 5.08384 | 794 ft | 22 kts | 356° |
| 2026-05-04 15:40 | 45.72762 | 5.08363 | 791 ft | 22 kts | 355° |
| 2026-05-04 15:41 | 45.72901 | 5.08346 | 790 ft | 21 kts | 355° |
| 2026-05-04 15:41 | 45.73056 | 5.08327 | 787 ft | 24 kts | 355° |
| 2026-05-04 15:41 | 45.73201 | 5.08309 | 785 ft | 21 kts | 355° |
| 2026-05-04 15:41 | 45.73359 | 5.08291 | 781 ft | 25 kts | 355° |
| 2026-05-04 15:42 | 45.73528 | 5.08270 | 780 ft | 19 kts | 355° |
| 2026-05-04 15:42 | 45.73659 | 5.08256 | 778 ft | 20 kts | 4° |
| 2026-05-04 15:42 | 45.73728 | 5.08408 | 777 ft | 21 kts | 99° |
| 2026-05-04 15:42 | 45.73691 | 5.08619 | 777 ft | 23 kts | 103° |
| 2026-05-04 15:43 | 45.73578 | 5.08728 | 780 ft | 22 kts | 174° |
| 2026-05-04 15:43 | 45.73268 | 5.08768 | 792 ft | 81 kts | 174° |
| 2026-05-04 15:43 | 45.72475 | 5.08864 | 796 ft | 145 kts | 175° |
| 2026-05-04 15:43 | 45.71447 | 5.08990 | 1379 ft | 145 kts | 174° |
| 2026-05-04 15:44 | 45.70449 | 5.09095 | 2112 ft | 144 kts | 174° |
| 2026-05-04 15:44 | 45.69448 | 5.09240 | 2758 ft | 147 kts | 175° |
| 2026-05-04 15:44 | 45.68344 | 5.09388 | 3117 ft | 172 kts | 174° |
| 2026-05-04 15:44 | 45.67070 | 5.09544 | 3448 ft | 197 kts | 175° |
| 2026-05-04 15:45 | 45.65625 | 5.09716 | 3911 ft | 220 kts | 175° |
| 2026-05-04 15:45 | 45.64065 | 5.09899 | 4736 ft | 227 kts | 175° |
| 2026-05-04 15:45 | 45.62490 | 5.10071 | 5708 ft | 228 kts | 179° |
| 2026-05-04 15:45 | 45.60869 | 5.09669 | 6256 ft | 248 kts | 202° |
| 2026-05-04 15:46 | 45.59431 | 5.08235 | 7047 ft | 258 kts | 225° |
| 2026-05-04 15:46 | 45.58508 | 5.06014 | 7902 ft | 267 kts | 250° |
| 2026-05-04 15:46 | 45.58063 | 5.03410 | 8813 ft | 272 kts | 255° |
| 2026-05-04 15:46 | 45.57643 | 5.00759 | 9724 ft | 276 kts | 256° |
| 2026-05-04 15:47 | 45.57174 | 4.98093 | 10610 ft | 274 kts | 249° |
| 2026-05-04 15:47 | 45.56544 | 4.95463 | 11157 ft | 291 kts | 252° |
| 2026-05-04 15:47 | 45.56044 | 4.92542 | 11465 ft | 314 kts | 256° |
| 2026-05-04 15:47 | 45.55607 | 4.89437 | 12120 ft | 322 kts | 257° |
| 2026-05-04 15:48 | 45.55378 | 4.86237 | 12884 ft | 330 kts | 268° |
| 2026-05-04 15:48 | 45.55401 | 4.82946 | 13676 ft | 333 kts | 265° |
| 2026-05-04 15:48 | 45.55108 | 4.76303 | 15057 ft | 338 kts | 262° |
| 2026-05-04 15:49 | 45.54893 | 4.72987 | 15721 ft | 342 kts | 261° |
| 2026-05-04 15:49 | 45.54669 | 4.69597 | 16383 ft | 346 kts | 261° |
| 2026-05-04 15:49 | 45.54449 | 4.66160 | 17078 ft | 349 kts | 261° |
| 2026-05-04 15:49 | 45.54241 | 4.62700 | 17786 ft | 352 kts | 261° |
| 2026-05-04 15:50 | 45.54041 | 4.59203 | 18445 ft | 356 kts | 261° |
| 2026-05-04 15:50 | 45.53842 | 4.55626 | 19059 ft | 359 kts | 261° |
| 2026-05-04 15:50 | 45.53646 | 4.52111 | 19669 ft | 361 kts | 261° |
| 2026-05-04 15:50 | 45.53445 | 4.48531 | 20293 ft | 364 kts | 261° |
| 2026-05-04 15:51 | 45.53242 | 4.44923 | 20915 ft | 366 kts | 261° |
| 2026-05-04 15:51 | 45.53037 | 4.41293 | 21518 ft | 369 kts | 261° |
| 2026-05-04 15:51 | 45.52830 | 4.37633 | 22117 ft | 372 kts | 261° |
| 2026-05-04 15:51 | 45.52619 | 4.33951 | 22704 ft | 374 kts | 261° |
| 2026-05-04 15:52 | 45.52295 | 4.30266 | 23297 ft | 374 kts | 253° |
| 2026-05-04 15:52 | 45.51503 | 4.26747 | 23828 ft | 373 kts | 243° |
| 2026-05-04 15:52 | 45.50247 | 4.23529 | 24291 ft | 372 kts | 232° |
| 2026-05-04 15:52 | 45.48730 | 4.20522 | 24737 ft | 375 kts | 232° |
| 2026-05-04 15:53 | 45.47186 | 4.17460 | 25187 ft | 377 kts | 232° |
| 2026-05-04 15:53 | 45.45656 | 4.14416 | 25638 ft | 379 kts | 232° |
| 2026-05-04 15:53 | 45.44120 | 4.11355 | 26086 ft | 381 kts | 232° |
| 2026-05-04 15:53 | 45.42595 | 4.08320 | 26522 ft | 383 kts | 232° |
| 2026-05-04 15:54 | 45.41043 | 4.05230 | 26957 ft | 385 kts | 232° |
| 2026-05-04 15:54 | 45.39482 | 4.02128 | 27399 ft | 387 kts | 232° |
| 2026-05-04 15:54 | 45.37902 | 3.99001 | 27821 ft | 389 kts | 232° |
| 2026-05-04 15:54 | 45.36316 | 3.95869 | 28255 ft | 391 kts | 232° |
| 2026-05-04 15:55 | 45.34723 | 3.92725 | 28686 ft | 393 kts | 232° |
| 2026-05-04 15:55 | 45.33117 | 3.89557 | 29108 ft | 395 kts | 232° |
| 2026-05-04 15:55 | 45.31506 | 3.86385 | 29507 ft | 397 kts | 232° |
| 2026-05-04 15:55 | 45.29886 | 3.83201 | 29931 ft | 399 kts | 232° |
| 2026-05-04 15:56 | 45.28249 | 3.79986 | 30265 ft | 402 kts | 232° |
| 2026-05-04 15:56 | 45.26609 | 3.76766 | 30594 ft | 404 kts | 232° |
| 2026-05-04 15:56 | 45.24965 | 3.73536 | 30922 ft | 405 kts | 232° |
| 2026-05-04 15:56 | 45.23335 | 3.70267 | 31252 ft | 406 kts | 233° |
| 2026-05-04 15:57 | 45.21719 | 3.66975 | 31586 ft | 407 kts | 233° |
| 2026-05-04 15:57 | 45.20108 | 3.63664 | 32016 ft | 406 kts | 233° |
| 2026-05-04 15:57 | 45.18511 | 3.60386 | 32529 ft | 403 kts | 233° |
| 2026-05-04 15:57 | 45.16916 | 3.57135 | 32897 ft | 402 kts | 233° |
| 2026-05-04 15:58 | 45.13777 | 3.50781 | 32965 ft | 389 kts | 233° |
| 2026-05-04 15:58 | 45.10594 | 3.44375 | 32973 ft | 406 kts | 233° |
| 2026-05-04 15:59 | 45.07296 | 3.37729 | 32975 ft | 416 kts | 233° |
| 2026-05-04 15:59 | 45.03955 | 3.31027 | 32972 ft | 417 kts | 233° |
| 2026-05-04 16:00 | 45.00611 | 3.24327 | 32977 ft | 417 kts | 233° |
| 2026-05-04 16:00 | 44.97264 | 3.17627 | 32975 ft | 417 kts | 233° |
| 2026-05-04 16:01 | 44.93908 | 3.10938 | 32968 ft | 417 kts | 233° |
| 2026-05-04 16:01 | 44.90547 | 3.04269 | 32998 ft | 417 kts | 233° |
| 2026-05-04 16:02 | 44.87184 | 2.97601 | 32966 ft | 418 kts | 233° |
| 2026-05-04 16:03 | 44.82228 | 2.87517 | 32948 ft | 419 kts | 235° |
| 2026-05-04 16:03 | 44.79097 | 2.80599 | 32942 ft | 420 kts | 236° |
| 2026-05-04 16:04 | 44.75964 | 2.73661 | 32934 ft | 420 kts | 235° |
| 2026-05-04 16:04 | 44.71188 | 2.63330 | 32936 ft | 421 kts | 235° |
| 2026-05-04 16:05 | 44.67963 | 2.56411 | 32919 ft | 424 kts | 235° |
| 2026-05-04 16:06 | 44.63097 | 2.45980 | 32921 ft | 427 kts | 235° |
| 2026-05-04 16:07 | 44.56575 | 2.32028 | 32926 ft | 427 kts | 235° |
| 2026-05-04 16:08 | 44.50044 | 2.18130 | 32916 ft | 430 kts | 234° |
| 2026-05-04 16:09 | 44.41769 | 2.00615 | 32907 ft | 432 kts | 234° |
| 2026-05-04 16:10 | 44.35094 | 1.86570 | 32938 ft | 432 kts | 233° |
| 2026-05-04 16:11 | 44.28446 | 1.72629 | 32919 ft | 433 kts | 233° |
| 2026-05-04 16:12 | 44.18701 | 1.51335 | 32949 ft | 434 kts | 233° |
| 2026-05-04 16:13 | 44.12228 | 1.37353 | 32928 ft | 426 kts | 233° |
| 2026-05-04 16:14 | 44.05784 | 1.23515 | 32930 ft | 426 kts | 232° |
| 2026-05-04 16:16 | 43.98269 | 1.07418 | 32953 ft | 425 kts | 232° |
| 2026-05-04 16:17 | 43.90171 | 0.90204 | 32953 ft | 426 kts | 232° |
| 2026-05-04 16:18 | 43.84126 | 0.81487 | 32931 ft | 418 kts | 219° |
| 2026-05-04 16:18 | 43.81953 | 0.78807 | 32923 ft | 418 kts | 219° |
| 2026-05-04 16:19 | 43.71088 | 0.65417 | 32947 ft | 419 kts | 219° |
| 2026-05-04 16:20 | 43.60213 | 0.52064 | 32947 ft | 419 kts | 219° |
| 2026-05-04 16:22 | 43.49300 | 0.38751 | 32963 ft | 419 kts | 219° |
| 2026-05-04 16:23 | 43.36176 | 0.22856 | 32981 ft | 418 kts | 219° |
| 2026-05-04 16:24 | 43.27494 | 0.12356 | 34177 ft | 411 kts | 219° |
| 2026-05-04 16:25 | 43.23196 | 0.07185 | 34752 ft | 411 kts | 220° |
| 2026-05-04 16:26 | 43.14567 | -0.03176 | 35860 ft | 414 kts | 221° |
| 2026-05-04 16:26 | 43.08040 | -0.10977 | 36498 ft | 417 kts | 221° |
| 2026-05-04 16:27 | 43.03663 | -0.16194 | 36953 ft | 418 kts | 221° |
| 2026-05-04 16:28 | 42.97084 | -0.24027 | 37001 ft | 417 kts | 221° |
| 2026-05-04 16:29 | 42.81747 | -0.42137 | 36983 ft | 417 kts | 217° |
| 2026-05-04 16:30 | 42.73863 | -0.47157 | 36975 ft | 420 kts | 203° |
| 2026-05-04 16:31 | 42.68400 | -0.50030 | 36979 ft | 421 kts | 203° |
| 2026-05-04 16:32 | 42.52104 | -0.58585 | 36970 ft | 419 kts | 204° |
| 2026-05-04 16:33 | 42.41239 | -0.64256 | 36972 ft | 418 kts | 204° |
| 2026-05-04 16:34 | 42.33098 | -0.68491 | 36969 ft | 417 kts | 204° |
| 2026-05-04 16:35 | 42.16875 | -0.76907 | 36973 ft | 416 kts | 204° |
| 2026-05-04 16:36 | 42.08765 | -0.81095 | 36951 ft | 417 kts | 204° |
| 2026-05-04 16:37 | 42.00630 | -0.85277 | 36956 ft | 418 kts | 204° |
| 2026-05-04 16:38 | 41.89753 | -0.90859 | 36944 ft | 419 kts | 204° |
| 2026-05-04 16:39 | 41.76140 | -0.97808 | 36932 ft | 419 kts | 204° |
| 2026-05-04 16:40 | 41.65386 | -1.03850 | 36946 ft | 418 kts | 217° |
| 2026-05-04 16:41 | 41.54520 | -1.16699 | 36957 ft | 419 kts | 224° |
| 2026-05-04 16:43 | 41.43683 | -1.29711 | 36947 ft | 422 kts | 224° |
| 2026-05-04 16:43 | 41.37143 | -1.37567 | 36954 ft | 423 kts | 224° |
| 2026-05-04 16:45 | 41.24015 | -1.53192 | 36999 ft | 421 kts | 224° |
| 2026-05-04 16:46 | 41.13102 | -1.66143 | 36980 ft | 420 kts | 224° |
| 2026-05-04 16:47 | 41.04380 | -1.76443 | 36983 ft | 419 kts | 224° |
| 2026-05-04 16:48 | 40.95677 | -1.86683 | 36420 ft | 416 kts | 224° |
| 2026-05-04 16:49 | 40.91374 | -1.91734 | 34348 ft | 411 kts | 224° |
| 2026-05-04 16:49 | 40.87171 | -1.96655 | 32423 ft | 398 kts | 224° |
| 2026-05-04 16:50 | 40.83080 | -2.01434 | 30600 ft | 387 kts | 224° |
| 2026-05-04 16:50 | 40.79111 | -2.06069 | 28682 ft | 377 kts | 224° |
| 2026-05-04 16:51 | 40.75230 | -2.10665 | 26713 ft | 369 kts | 230° |
| 2026-05-04 16:51 | 40.73810 | -2.13381 | 25547 ft | 367 kts | 246° |
| 2026-05-04 16:51 | 40.73238 | -2.20057 | 23008 ft | 379 kts | 278° |
| 2026-05-04 16:52 | 40.74091 | -2.26898 | 20854 ft | 375 kts | 278° |
| 2026-05-04 16:52 | 40.74502 | -2.30282 | 19972 ft | 370 kts | 278° |
| 2026-05-04 16:53 | 40.75283 | -2.36881 | 18325 ft | 361 kts | 278° |
| 2026-05-04 16:53 | 40.76401 | -2.46366 | 16996 ft | 328 kts | 278° |
| 2026-05-04 16:54 | 40.76748 | -2.49301 | 16574 ft | 319 kts | 277° |
| 2026-05-04 16:55 | 40.78020 | -2.60439 | 15545 ft | 299 kts | 272° |
| 2026-05-04 16:55 | 40.77149 | -2.65715 | 15048 ft | 298 kts | 243° |
| 2026-05-04 16:56 | 40.74476 | -2.69880 | 14559 ft | 300 kts | 227° |
| 2026-05-04 16:56 | 40.70103 | -2.75697 | 13835 ft | 296 kts | 227° |
| 2026-05-04 16:57 | 40.68671 | -2.77599 | 13577 ft | 290 kts | 227° |
| 2026-05-04 16:57 | 40.65850 | -2.81336 | 13049 ft | 290 kts | 227° |
| 2026-05-04 16:58 | 40.60760 | -2.85815 | 12259 ft | 294 kts | 213° |
| 2026-05-04 16:58 | 40.59013 | -2.87193 | 12003 ft | 292 kts | 213° |
| 2026-05-04 16:59 | 40.55534 | -2.89939 | 11491 ft | 290 kts | 213° |
| 2026-05-04 17:00 | 40.48683 | -2.95374 | 10502 ft | 285 kts | 213° |
| 2026-05-04 17:00 | 40.43646 | -2.99367 | 9979 ft | 274 kts | 213° |
| 2026-05-04 17:01 | 40.40410 | -3.01933 | 9935 ft | 275 kts | 213° |
| 2026-05-04 17:01 | 40.37167 | -3.04526 | 9682 ft | 273 kts | 213° |
| 2026-05-04 17:02 | 40.33924 | -3.07119 | 9423 ft | 272 kts | 214° |
| 2026-05-04 17:02 | 40.30709 | -3.09694 | 9109 ft | 270 kts | 214° |
| 2026-05-04 17:03 | 40.29115 | -3.10969 | 8742 ft | 267 kts | 213° |
| 2026-05-04 17:03 | 40.27652 | -3.12436 | 8343 ft | 263 kts | 229° |
| 2026-05-04 17:03 | 40.26339 | -3.16742 | 7727 ft | 260 kts | 268° |
| 2026-05-04 17:04 | 40.26750 | -3.20638 | 7337 ft | 260 kts | 279° |
| 2026-05-04 17:04 | 40.27354 | -3.25240 | 6877 ft | 248 kts | 278° |
| 2026-05-04 17:05 | 40.27916 | -3.29540 | 6467 ft | 232 kts | 278° |
| 2026-05-04 17:05 | 40.28902 | -3.33451 | 6062 ft | 229 kts | 303° |
| 2026-05-04 17:06 | 40.30875 | -3.36497 | 5684 ft | 210 kts | 306° |
| 2026-05-04 17:06 | 40.31824 | -3.37946 | 5501 ft | 210 kts | 309° |
| 2026-05-04 17:07 | 40.34149 | -3.40271 | 5134 ft | 206 kts | 318° |
| 2026-05-04 17:07 | 40.34897 | -3.41014 | 4995 ft | 203 kts | 317° |
| 2026-05-04 17:07 | 40.36351 | -3.42476 | 4631 ft | 191 kts | 318° |
| 2026-05-04 17:07 | 40.37391 | -3.43527 | 4367 ft | 185 kts | 319° |
| 2026-05-04 17:08 | 40.38394 | -3.44541 | 4124 ft | 180 kts | 319° |
| 2026-05-04 17:08 | 40.40249 | -3.46416 | 3681 ft | 160 kts | 319° |
| 2026-05-04 17:08 | 40.41100 | -3.47277 | 3476 ft | 151 kts | 319° |
| 2026-05-04 17:09 | 40.41909 | -3.48096 | 3281 ft | 143 kts | 319° |
| 2026-05-04 17:09 | 40.42682 | -3.48880 | 3066 ft | 144 kts | 315° |
| 2026-05-04 17:09 | 40.43474 | -3.49684 | 2888 ft | 144 kts | 316° |
| 2026-05-04 17:10 | 40.45042 | -3.51277 | 2533 ft | 138 kts | 318° |
| 2026-05-04 17:10 | 40.47272 | -3.53539 | 1946 ft | 133 kts | 320° |
| 2026-05-04 17:11 | 40.47932 | -3.54213 | 1931 ft | 106 kts | 322° |
| 2026-05-04 17:11 | 40.48440 | -3.54725 | 1938 ft | 80 kts | 322° |
| 2026-05-04 17:11 | 40.49109 | -3.55406 | 1954 ft | 45 kts | 322° |
| 2026-05-04 17:12 | 40.49228 | -3.55639 | 1963 ft | 22 kts | 288° |
| 2026-05-04 17:12 | 40.49276 | -3.55799 | 1965 ft | 5 kts | 292° |
| 2026-05-04 17:13 | 40.49299 | -3.55971 | 1959 ft | 6 kts | 270° |
| 2026-05-04 17:14 | 40.49298 | -3.56204 | 1961 ft | 8 kts | 268° |
| 2026-05-04 17:14 | 40.49261 | -3.56244 | 1961 ft | 8 kts | 194° |
| 2026-05-04 17:14 | 40.49219 | -3.56306 | 1963 ft | 4 kts | 270° |
| 2026-05-04 17:15 | 40.49219 | -3.56333 | 1964 ft | 2 kts | 271° |
| 2026-05-04 17:15 | 40.49219 | -3.56342 | 1964 ft | 0 kts | 271° |